createdAt,value
2017-07-07T00:00:02.203Z,21.93
2017-07-07T00:00:06.027Z,21.86
2017-07-07T00:00:10.113Z,21.89
2017-07-07T00:00:14.316Z,21.91
2017-07-07T00:00:18.257Z,21.86
2017-07-07T00:00:22.210Z,21.86
2017-07-07T00:00:26.022Z,21.82
2017-07-07T00:00:30.234Z,21.85
2017-07-07T00:00:34.443Z,21.9
2017-07-07T00:00:38.393Z,21.85
2017-07-07T00:00:42.349Z,21.85
2017-07-07T00:00:46.676Z,21.93
2017-07-07T00:00:50.997Z,21.91
2017-07-07T00:00:55.078Z,21.86
2017-07-07T00:00:58.919Z,21.91
2017-07-07T00:01:02.876Z,21.89
2017-07-07T00:01:07.074Z,21.81
2017-07-07T00:01:10.891Z,21.83
2017-07-07T00:01:15.033Z,21.81
2017-07-07T00:01:19.002Z,21.83
2017-07-07T00:01:22.945Z,21.89
2017-07-07T00:01:27.301Z,21.82
2017-07-07T00:01:31.262Z,21.83
2017-07-07T00:01:35.586Z,21.86
2017-07-07T00:01:39.666Z,21.82
2017-07-07T00:01:43.749Z,21.83
2017-07-07T00:01:47.743Z,21.79
2017-07-07T00:01:51.939Z,21.81
2017-07-07T00:01:55.630Z,21.81
2017-07-07T00:01:59.443Z,21.77
2017-07-07T00:02:03.431Z,21.79
2017-07-07T00:02:07.381Z,21.83
2017-07-07T00:02:11.449Z,21.77
2017-07-07T00:02:15.536Z,21.73
2017-07-07T00:02:19.854Z,21.77
2017-07-07T00:02:23.937Z,21.81
2017-07-07T00:02:28.140Z,21.77
2017-07-07T00:02:32.353Z,21.81
2017-07-07T00:02:36.567Z,21.77
2017-07-07T00:02:40.654Z,21.81
2017-07-07T00:02:44.735Z,21.74
2017-07-07T00:02:48.679Z,21.75
2017-07-07T00:02:52.874Z,21.77
2017-07-07T00:02:57.079Z,21.79
2017-07-07T00:03:01.280Z,21.71
2017-07-07T00:03:05.642Z,21.77
2017-07-07T00:03:09.724Z,21.77
2017-07-07T00:03:13.545Z,21.75
2017-07-07T00:03:17.755Z,21.79
2017-07-07T00:03:21.828Z,21.74
2017-07-07T00:03:25.784Z,21.75
2017-07-07T00:03:29.867Z,21.71
2017-07-07T00:03:34.073Z,21.74
2017-07-07T00:03:38.406Z,21.75
2017-07-07T00:03:42.498Z,21.77
2017-07-07T00:03:46.317Z,21.68
2017-07-07T00:03:50.407Z,21.68
2017-07-07T00:03:54.354Z,21.75
2017-07-07T00:03:58.560Z,21.73
2017-07-07T00:04:02.668Z,21.7
2017-07-07T00:04:07.123Z,21.71
2017-07-07T00:04:10.959Z,21.73
2017-07-07T00:04:15.030Z,21.7
2017-07-07T00:04:19.230Z,21.75
2017-07-07T00:04:23.306Z,21.7
2017-07-07T00:04:27.122Z,21.66
2017-07-07T00:04:31.202Z,21.75
2017-07-07T00:04:35.397Z,21.64
2017-07-07T00:04:39.715Z,21.73
2017-07-07T00:04:43.687Z,21.68
2017-07-07T00:04:47.746Z,21.68
2017-07-07T00:04:51.961Z,21.66
2017-07-07T00:04:55.912Z,21.71
2017-07-07T00:05:00.236Z,21.7
2017-07-07T00:05:04.637Z,21.7
2017-07-07T00:05:08.852Z,21.71
2017-07-07T00:05:12.950Z,21.73
2017-07-07T00:05:17.270Z,21.71
2017-07-07T00:05:21.225Z,21.74
2017-07-07T00:05:25.184Z,21.75
2017-07-07T00:05:29.255Z,21.66
2017-07-07T00:05:32.950Z,21.7
2017-07-07T00:05:36.894Z,21.71
2017-07-07T00:05:41.094Z,21.68
2017-07-07T00:05:45.292Z,21.77
2017-07-07T00:05:49.017Z,21.79
2017-07-07T00:05:53.347Z,21.75
2017-07-07T00:05:57.561Z,21.71
2017-07-07T00:06:01.766Z,21.73
2017-07-07T00:06:05.832Z,21.68
2017-07-07T00:06:09.917Z,21.71
2017-07-07T00:06:14.117Z,21.73
2017-07-07T00:06:18.558Z,21.71
2017-07-07T00:06:22.636Z,21.73
2017-07-07T00:06:26.723Z,21.71
2017-07-07T00:06:30.918Z,21.75
2017-07-07T00:06:35.258Z,21.74
2017-07-07T00:06:39.085Z,21.7
2017-07-07T00:06:43.291Z,21.74
2017-07-07T00:06:47.383Z,21.73
2017-07-07T00:06:51.602Z,21.67
2017-07-07T00:06:55.439Z,21.71
2017-07-07T00:06:59.516Z,21.7
2017-07-07T00:07:03.604Z,21.71
2017-07-07T00:07:07.760Z,21.74
2017-07-07T00:07:11.854Z,21.74
2017-07-07T00:07:15.806Z,21.73
2017-07-07T00:07:19.997Z,21.67
2017-07-07T00:07:24.087Z,21.71
2017-07-07T00:07:28.280Z,21.73
2017-07-07T00:07:32.108Z,21.74
2017-07-07T00:07:36.181Z,21.75
2017-07-07T00:07:40.143Z,21.73
2017-07-07T00:07:44.222Z,21.74
2017-07-07T00:07:48.574Z,21.74
2017-07-07T00:07:52.517Z,21.75
2017-07-07T00:07:56.602Z,21.75
2017-07-07T00:08:00.675Z,21.71
2017-07-07T00:08:04.492Z,21.71
2017-07-07T00:08:08.318Z,21.77
2017-07-07T00:08:12.530Z,21.77
2017-07-07T00:08:16.613Z,21.68
2017-07-07T00:08:20.561Z,21.7
2017-07-07T00:08:24.748Z,21.73
2017-07-07T00:08:28.957Z,21.73
2017-07-07T00:08:32.905Z,21.73
2017-07-07T00:08:36.868Z,21.75
2017-07-07T00:08:41.087Z,21.73
2017-07-07T00:08:45.288Z,21.77
2017-07-07T00:08:48.994Z,21.77
2017-07-07T00:08:53.060Z,21.75
2017-07-07T00:08:57.018Z,21.75
2017-07-07T00:09:01.098Z,21.77
2017-07-07T00:09:05.136Z,21.71
2017-07-07T00:09:09.207Z,21.73
2017-07-07T00:09:13.286Z,21.73
2017-07-07T00:09:17.382Z,21.75
2017-07-07T00:09:21.843Z,21.74
2017-07-07T00:09:25.662Z,21.7
2017-07-07T00:09:29.620Z,21.74
2017-07-07T00:09:33.478Z,21.73
2017-07-07T00:09:37.801Z,21.71
2017-07-07T00:09:41.878Z,21.71
2017-07-07T00:09:46.080Z,21.73
2017-07-07T00:09:50.277Z,21.74
2017-07-07T00:09:54.362Z,21.75
2017-07-07T00:09:58.575Z,21.77
2017-07-07T00:10:03.097Z,21.75
2017-07-07T00:10:07.166Z,21.73
2017-07-07T00:10:11.115Z,21.74
2017-07-07T00:10:15.060Z,21.77
2017-07-07T00:10:19.141Z,21.7
2017-07-07T00:10:23.092Z,21.73
2017-07-07T00:10:26.911Z,21.75
2017-07-07T00:10:30.866Z,21.75
2017-07-07T00:10:35.090Z,21.74
2017-07-07T00:10:39.419Z,21.73
2017-07-07T00:10:43.360Z,21.77
2017-07-07T00:10:47.422Z,21.71
2017-07-07T00:10:51.373Z,21.77
2017-07-07T00:10:55.569Z,21.71
2017-07-07T00:10:59.658Z,21.77
2017-07-07T00:11:03.490Z,21.77
2017-07-07T00:11:07.806Z,21.77
2017-07-07T00:11:11.761Z,21.74
2017-07-07T00:11:16.050Z,21.75
2017-07-07T00:11:19.883Z,21.73
2017-07-07T00:11:23.710Z,21.77
2017-07-07T00:11:27.909Z,21.71
2017-07-07T00:11:32.114Z,21.71
2017-07-07T00:11:36.441Z,21.71
2017-07-07T00:11:40.627Z,21.75
2017-07-07T00:11:44.576Z,21.73
2017-07-07T00:11:48.771Z,21.64
2017-07-07T00:11:53.095Z,21.71
2017-07-07T00:11:57.056Z,21.74
2017-07-07T00:12:01.254Z,21.74
2017-07-07T00:12:05.205Z,21.71
2017-07-07T00:12:09.376Z,21.73
2017-07-07T00:12:13.007Z,21.79
2017-07-07T00:12:17.104Z,21.74
2017-07-07T00:12:21.175Z,21.7
2017-07-07T00:12:25.137Z,21.68
2017-07-07T00:12:29.083Z,21.73
2017-07-07T00:12:33.145Z,21.68
2017-07-07T00:12:37.487Z,21.67
2017-07-07T00:12:41.441Z,21.73
2017-07-07T00:12:45.650Z,21.66
2017-07-07T00:12:49.844Z,21.71
2017-07-07T00:12:54.195Z,21.74
2017-07-07T00:12:58.655Z,21.68
2017-07-07T00:13:02.683Z,21.66
2017-07-07T00:13:06.891Z,21.74
2017-07-07T00:13:10.966Z,21.68
2017-07-07T00:13:15.177Z,21.73
2017-07-07T00:13:19.381Z,21.68
2017-07-07T00:13:23.340Z,21.75
2017-07-07T00:13:27.430Z,21.7
2017-07-07T00:13:31.624Z,21.68
2017-07-07T00:13:35.950Z,21.68
2017-07-07T00:13:40.018Z,21.67
2017-07-07T00:13:43.716Z,21.67
2017-07-07T00:13:47.527Z,21.68
2017-07-07T00:13:51.476Z,21.64
2017-07-07T00:13:55.548Z,21.68
2017-07-07T00:13:59.738Z,21.73
2017-07-07T00:14:03.990Z,21.7
2017-07-07T00:14:08.185Z,21.74
2017-07-07T00:14:12.243Z,21.79
2017-07-07T00:14:16.459Z,21.7
2017-07-07T00:14:20.411Z,21.66
2017-07-07T00:14:24.099Z,21.67
2017-07-07T00:14:28.179Z,21.7
2017-07-07T00:14:32.385Z,21.68
2017-07-07T00:14:36.465Z,21.7
2017-07-07T00:14:40.666Z,21.7
2017-07-07T00:14:44.858Z,21.73
2017-07-07T00:14:49.191Z,21.73
2017-07-07T00:14:53.012Z,21.73
2017-07-07T00:14:57.105Z,21.67
2017-07-07T00:15:01.308Z,21.71
2017-07-07T00:15:05.245Z,21.67
2017-07-07T00:15:09.459Z,21.63
2017-07-07T00:15:13.532Z,21.68
2017-07-07T00:15:17.748Z,21.67
2017-07-07T00:15:21.837Z,21.66
2017-07-07T00:15:25.790Z,21.7
2017-07-07T00:15:29.872Z,21.68
2017-07-07T00:15:34.091Z,21.66
2017-07-07T00:15:38.290Z,21.63
2017-07-07T00:15:42.363Z,21.73
2017-07-07T00:15:46.562Z,21.59
2017-07-07T00:15:50.644Z,21.64
2017-07-07T00:15:54.725Z,21.59
2017-07-07T00:15:58.948Z,21.67
2017-07-07T00:16:03.398Z,21.64
2017-07-07T00:16:07.583Z,21.61
2017-07-07T00:16:11.664Z,21.61
2017-07-07T00:16:15.616Z,21.58
2017-07-07T00:16:19.813Z,21.59
2017-07-07T00:16:23.766Z,21.61
2017-07-07T00:16:27.844Z,21.66
2017-07-07T00:16:31.793Z,21.64
2017-07-07T00:16:35.860Z,21.66
2017-07-07T00:16:40.182Z,21.61
2017-07-07T00:16:44.123Z,21.67
2017-07-07T00:16:48.336Z,21.66
2017-07-07T00:16:52.547Z,21.61
2017-07-07T00:16:56.488Z,21.55
2017-07-07T00:17:00.566Z,21.59
2017-07-07T00:17:04.398Z,21.66
2017-07-07T00:17:08.602Z,21.66
2017-07-07T00:17:12.467Z,21.61
2017-07-07T00:17:16.622Z,21.63
2017-07-07T00:17:20.955Z,21.63
2017-07-07T00:17:24.774Z,21.53
2017-07-07T00:17:28.991Z,21.58
2017-07-07T00:17:33.201Z,21.67
2017-07-07T00:17:37.014Z,21.64
2017-07-07T00:17:41.219Z,21.71
2017-07-07T00:17:45.295Z,21.53
2017-07-07T00:17:49.501Z,21.67
2017-07-07T00:17:53.822Z,21.7
2017-07-07T00:17:58.033Z,21.59
2017-07-07T00:18:02.108Z,21.66
2017-07-07T00:18:06.174Z,21.67
2017-07-07T00:18:10.380Z,21.61
2017-07-07T00:18:14.649Z,21.56
2017-07-07T00:18:18.847Z,21.67
2017-07-07T00:18:22.663Z,21.67
2017-07-07T00:18:26.480Z,21.71
2017-07-07T00:18:30.931Z,21.63
2017-07-07T00:18:34.879Z,21.58
2017-07-07T00:18:38.822Z,21.55
2017-07-07T00:18:42.665Z,21.58
2017-07-07T00:18:46.999Z,21.61
2017-07-07T00:18:51.333Z,21.61
2017-07-07T00:18:55.532Z,21.66
2017-07-07T00:18:59.728Z,21.61
2017-07-07T00:19:03.803Z,21.58
2017-07-07T00:19:07.736Z,21.58
2017-07-07T00:19:11.806Z,21.59
2017-07-07T00:19:15.880Z,21.63
2017-07-07T00:19:20.198Z,21.61
2017-07-07T00:19:24.146Z,21.63
2017-07-07T00:19:28.352Z,21.56
2017-07-07T00:19:32.678Z,21.58
2017-07-07T00:19:36.879Z,21.53
2017-07-07T00:19:40.823Z,21.52
2017-07-07T00:19:44.781Z,21.55
2017-07-07T00:19:49.112Z,21.63
2017-07-07T00:19:53.178Z,21.52
2017-07-07T00:19:57.389Z,21.52
2017-07-07T00:20:01.342Z,21.53
2017-07-07T00:20:05.278Z,21.59
2017-07-07T00:20:09.272Z,21.53
2017-07-07T00:20:13.365Z,21.59
2017-07-07T00:20:17.577Z,21.61
2017-07-07T00:20:21.768Z,21.51
2017-07-07T00:20:25.713Z,21.46
2017-07-07T00:20:29.920Z,21.53
2017-07-07T00:20:34.241Z,21.52
2017-07-07T00:20:38.566Z,21.49
2017-07-07T00:20:42.520Z,21.61
2017-07-07T00:20:46.726Z,21.55
2017-07-07T00:20:51.079Z,21.49
2017-07-07T00:20:55.293Z,21.46
2017-07-07T00:20:59.507Z,21.55
2017-07-07T00:21:03.200Z,21.53
2017-07-07T00:21:07.676Z,21.52
2017-07-07T00:21:11.756Z,21.51
2017-07-07T00:21:15.956Z,21.55
2017-07-07T00:21:19.915Z,21.48
2017-07-07T00:21:24.122Z,21.49
2017-07-07T00:21:28.321Z,21.51
2017-07-07T00:21:32.530Z,21.55
2017-07-07T00:21:36.742Z,21.52
2017-07-07T00:21:40.709Z,21.51
2017-07-07T00:21:44.658Z,21.49
2017-07-07T00:21:48.744Z,21.56
2017-07-07T00:21:52.571Z,21.55
2017-07-07T00:21:56.649Z,21.48
2017-07-07T00:22:00.355Z,21.49
2017-07-07T00:22:04.065Z,21.46
2017-07-07T00:22:07.764Z,21.49
2017-07-07T00:22:11.453Z,21.51
2017-07-07T00:22:15.146Z,21.51
2017-07-07T00:22:18.859Z,21.58
2017-07-07T00:22:22.560Z,21.53
2017-07-07T00:22:26.246Z,21.51
2017-07-07T00:22:29.946Z,21.46
2017-07-07T00:22:33.647Z,21.53
2017-07-07T00:22:37.468Z,21.49
2017-07-07T00:22:41.179Z,21.52
2017-07-07T00:22:44.869Z,21.49
2017-07-07T00:22:48.578Z,21.48
2017-07-07T00:22:52.403Z,21.49
2017-07-07T00:22:56.092Z,21.46
2017-07-07T00:22:59.795Z,21.59
2017-07-07T00:23:03.959Z,21.58
2017-07-07T00:23:07.791Z,21.52
2017-07-07T00:23:11.503Z,21.49
2017-07-07T00:23:15.195Z,21.51
2017-07-07T00:23:19.029Z,21.49
2017-07-07T00:23:22.855Z,21.51
2017-07-07T00:23:26.559Z,21.56
2017-07-07T00:23:30.529Z,21.46
2017-07-07T00:23:34.487Z,21.52
2017-07-07T00:23:38.315Z,21.52
2017-07-07T00:23:42.012Z,21.46
2017-07-07T00:23:45.837Z,21.51
2017-07-07T00:23:49.653Z,21.46
2017-07-07T00:23:53.352Z,21.51
2017-07-07T00:23:57.186Z,21.53
2017-07-07T00:24:01.151Z,21.56
2017-07-07T00:24:05.146Z,21.49
2017-07-07T00:24:08.973Z,21.58
2017-07-07T00:24:13.102Z,21.61
2017-07-07T00:24:17.302Z,21.58
2017-07-07T00:24:21.381Z,21.63
2017-07-07T00:24:25.445Z,21.51
2017-07-07T00:24:29.768Z,21.61
2017-07-07T00:24:33.983Z,21.49
2017-07-07T00:24:38.448Z,21.61
2017-07-07T00:24:42.152Z,21.52
2017-07-07T00:24:46.240Z,21.52
2017-07-07T00:24:50.593Z,21.46
2017-07-07T00:24:54.545Z,21.63
2017-07-07T00:24:58.751Z,21.51
2017-07-07T00:25:02.571Z,21.59
2017-07-07T00:25:06.777Z,21.55
2017-07-07T00:25:10.857Z,21.48
2017-07-07T00:25:14.942Z,21.58
2017-07-07T00:25:19.270Z,21.52
2017-07-07T00:25:22.961Z,21.48
2017-07-07T00:25:27.053Z,21.56
2017-07-07T00:25:31.271Z,21.51
2017-07-07T00:25:35.490Z,21.48
2017-07-07T00:25:39.558Z,21.49
2017-07-07T00:25:43.510Z,21.51
2017-07-07T00:25:47.333Z,21.56
2017-07-07T00:25:51.420Z,21.46
2017-07-07T00:25:55.258Z,21.55
2017-07-07T00:25:59.224Z,21.46
2017-07-07T00:26:02.918Z,21.51
2017-07-07T00:26:07.260Z,21.52
2017-07-07T00:26:11.216Z,21.56
2017-07-07T00:26:15.414Z,21.56
2017-07-07T00:26:19.486Z,21.51
2017-07-07T00:26:23.320Z,21.46
2017-07-07T00:26:27.276Z,21.55
2017-07-07T00:26:31.476Z,21.51
2017-07-07T00:26:35.940Z,21.53
2017-07-07T00:26:40.145Z,21.46
2017-07-07T00:26:43.967Z,21.53
2017-07-07T00:26:48.061Z,21.52
2017-07-07T00:26:52.006Z,21.53
2017-07-07T00:26:56.203Z,21.55
2017-07-07T00:27:00.529Z,21.52
2017-07-07T00:27:05.043Z,21.55
2017-07-07T00:27:09.235Z,21.55
2017-07-07T00:27:13.055Z,21.53
2017-07-07T00:27:17.254Z,21.52
2017-07-07T00:27:21.066Z,21.56
2017-07-07T00:27:25.272Z,21.52
2017-07-07T00:27:29.482Z,21.52
2017-07-07T00:27:33.438Z,21.52
2017-07-07T00:27:37.901Z,21.56
2017-07-07T00:27:41.865Z,21.49
2017-07-07T00:27:45.823Z,21.56
2017-07-07T00:27:49.669Z,21.55
2017-07-07T00:27:53.870Z,21.48
2017-07-07T00:27:58.079Z,21.56
2017-07-07T00:28:02.023Z,21.51
2017-07-07T00:28:06.045Z,21.55
2017-07-07T00:28:10.000Z,21.42
2017-07-07T00:28:14.191Z,21.52
2017-07-07T00:28:18.149Z,21.52
2017-07-07T00:28:22.233Z,21.45
2017-07-07T00:28:26.180Z,21.55
2017-07-07T00:28:30.253Z,21.42
2017-07-07T00:28:34.215Z,21.58
2017-07-07T00:28:38.279Z,21.49
2017-07-07T00:28:42.237Z,21.55
2017-07-07T00:28:46.200Z,21.42
2017-07-07T00:28:50.534Z,21.51
2017-07-07T00:28:54.736Z,21.52
2017-07-07T00:28:58.936Z,21.52
2017-07-07T00:29:03.285Z,21.43
2017-07-07T00:29:07.623Z,21.52
2017-07-07T00:29:11.717Z,21.42
2017-07-07T00:29:15.414Z,21.52
2017-07-07T00:29:19.423Z,21.43
2017-07-07T00:29:23.521Z,21.42
2017-07-07T00:29:27.727Z,21.56
2017-07-07T00:29:31.928Z,21.42
2017-07-07T00:29:36.133Z,21.49
2017-07-07T00:29:40.227Z,21.38
2017-07-07T00:29:44.165Z,21.42
2017-07-07T00:29:47.995Z,21.51
2017-07-07T00:29:51.818Z,21.43
2017-07-07T00:29:56.042Z,21.42
2017-07-07T00:30:00.334Z,21.38
2017-07-07T00:30:04.887Z,21.38
2017-07-07T00:30:08.970Z,21.37
2017-07-07T00:30:12.932Z,21.43
2017-07-07T00:30:17.000Z,21.46
2017-07-07T00:30:21.084Z,21.43
2017-07-07T00:30:25.162Z,21.45
2017-07-07T00:30:29.620Z,21.45
2017-07-07T00:30:33.821Z,21.43
2017-07-07T00:30:37.636Z,21.43
2017-07-07T00:30:41.461Z,21.45
2017-07-07T00:30:45.661Z,21.38
2017-07-07T00:30:49.629Z,21.42
2017-07-07T00:30:53.968Z,21.48
2017-07-07T00:30:58.181Z,21.38
2017-07-07T00:31:02.443Z,21.46
2017-07-07T00:31:06.783Z,21.42
2017-07-07T00:31:10.997Z,21.42
2017-07-07T00:31:15.200Z,21.36
2017-07-07T00:31:19.155Z,21.48
2017-07-07T00:31:22.996Z,21.4
2017-07-07T00:31:27.074Z,21.37
2017-07-07T00:31:31.412Z,21.38
2017-07-07T00:31:35.852Z,21.45
2017-07-07T00:31:39.800Z,21.43
2017-07-07T00:31:43.865Z,21.37
2017-07-07T00:31:48.199Z,21.42
2017-07-07T00:31:52.291Z,21.48
2017-07-07T00:31:56.362Z,21.42
2017-07-07T00:32:00.559Z,21.38
2017-07-07T00:32:04.913Z,21.38
2017-07-07T00:32:09.248Z,21.33
2017-07-07T00:32:13.323Z,21.46
2017-07-07T00:32:17.260Z,21.46
2017-07-07T00:32:21.196Z,21.43
2017-07-07T00:32:25.283Z,21.42
2017-07-07T00:32:29.492Z,21.37
2017-07-07T00:32:33.710Z,21.46
2017-07-07T00:32:38.155Z,21.42
2017-07-07T00:32:41.854Z,21.49
2017-07-07T00:32:46.077Z,21.49
2017-07-07T00:32:50.035Z,21.48
2017-07-07T00:32:54.248Z,21.48
2017-07-07T00:32:58.206Z,21.37
2017-07-07T00:33:02.334Z,21.37
2017-07-07T00:33:06.410Z,21.4
2017-07-07T00:33:10.608Z,21.38
2017-07-07T00:33:14.552Z,21.48
2017-07-07T00:33:18.919Z,21.48
2017-07-07T00:33:23.161Z,21.43
2017-07-07T00:33:27.119Z,21.49
2017-07-07T00:33:31.325Z,21.38
2017-07-07T00:33:35.397Z,21.42
2017-07-07T00:33:39.459Z,21.43
2017-07-07T00:33:43.783Z,21.43
2017-07-07T00:33:47.990Z,21.36
2017-07-07T00:33:51.954Z,21.38
2017-07-07T00:33:55.910Z,21.4
2017-07-07T00:34:00.224Z,21.48
2017-07-07T00:34:04.309Z,21.37
2017-07-07T00:34:08.122Z,21.38
2017-07-07T00:34:12.205Z,21.37
2017-07-07T00:34:16.542Z,21.42
2017-07-07T00:34:20.623Z,21.37
2017-07-07T00:34:24.823Z,21.42
2017-07-07T00:34:28.656Z,21.38
2017-07-07T00:34:32.986Z,21.36
2017-07-07T00:34:37.194Z,21.34
2017-07-07T00:34:41.406Z,21.34
2017-07-07T00:34:45.606Z,21.36
2017-07-07T00:34:49.799Z,21.48
2017-07-07T00:34:53.747Z,21.46
2017-07-07T00:34:58.066Z,21.43
2017-07-07T00:35:02.388Z,21.37
2017-07-07T00:35:06.477Z,21.4
2017-07-07T00:35:10.560Z,21.42
2017-07-07T00:35:14.516Z,21.48
2017-07-07T00:35:18.734Z,21.38
2017-07-07T00:35:22.677Z,21.36
2017-07-07T00:35:26.626Z,21.34
2017-07-07T00:35:30.850Z,21.4
2017-07-07T00:35:34.806Z,21.33
2017-07-07T00:35:39.142Z,21.36
2017-07-07T00:35:42.961Z,21.43
2017-07-07T00:35:47.152Z,21.34
2017-07-07T00:35:51.104Z,21.43
2017-07-07T00:35:55.245Z,21.37
2017-07-07T00:35:59.183Z,21.4
2017-07-07T00:36:03.247Z,21.36
2017-07-07T00:36:07.213Z,21.4
2017-07-07T00:36:11.158Z,21.46
2017-07-07T00:36:15.496Z,21.38
2017-07-07T00:36:19.449Z,21.4
2017-07-07T00:36:23.163Z,21.34
2017-07-07T00:36:27.125Z,21.4
2017-07-07T00:36:31.327Z,21.37
2017-07-07T00:36:35.543Z,21.42
2017-07-07T00:36:39.621Z,21.38
2017-07-07T00:36:43.569Z,21.45
2017-07-07T00:36:47.904Z,21.4
2017-07-07T00:36:51.844Z,21.37
2017-07-07T00:36:55.930Z,21.42
2017-07-07T00:36:59.877Z,21.38
2017-07-07T00:37:04.212Z,21.48
2017-07-07T00:37:08.426Z,21.36
2017-07-07T00:37:12.248Z,21.38
2017-07-07T00:37:16.446Z,21.37
2017-07-07T00:37:20.783Z,21.38
2017-07-07T00:37:24.859Z,21.36
2017-07-07T00:37:29.077Z,21.38
2017-07-07T00:37:32.900Z,21.4
2017-07-07T00:37:37.097Z,21.36
2017-07-07T00:37:41.192Z,21.37
2017-07-07T00:37:45.037Z,21.38
2017-07-07T00:37:49.365Z,21.43
2017-07-07T00:37:53.439Z,21.46
2017-07-07T00:37:57.651Z,21.38
2017-07-07T00:38:02.167Z,21.43
2017-07-07T00:38:06.238Z,21.43
2017-07-07T00:38:10.190Z,21.36
2017-07-07T00:38:14.148Z,21.46
2017-07-07T00:38:18.231Z,21.36
2017-07-07T00:38:22.290Z,21.42
2017-07-07T00:38:26.486Z,21.45
2017-07-07T00:38:30.576Z,21.34
2017-07-07T00:38:34.653Z,21.37
2017-07-07T00:38:38.472Z,21.4
2017-07-07T00:38:42.173Z,21.42
2017-07-07T00:38:46.260Z,21.37
2017-07-07T00:38:50.343Z,21.34
2017-07-07T00:38:54.534Z,21.42
2017-07-07T00:38:58.738Z,21.4
2017-07-07T00:39:03.267Z,21.38
2017-07-07T00:39:07.351Z,21.38
2017-07-07T00:39:11.314Z,21.38
2017-07-07T00:39:15.265Z,21.36
2017-07-07T00:39:19.456Z,21.4
2017-07-07T00:39:23.520Z,21.38
2017-07-07T00:39:27.852Z,21.34
2017-07-07T00:39:32.189Z,21.38
2017-07-07T00:39:36.412Z,21.42
2017-07-07T00:39:40.675Z,21.38
2017-07-07T00:39:44.626Z,21.36
2017-07-07T00:39:48.969Z,21.37
2017-07-07T00:39:53.183Z,21.38
2017-07-07T00:39:57.653Z,21.37
2017-07-07T00:40:02.151Z,21.36
2017-07-07T00:40:06.108Z,21.33
2017-07-07T00:40:09.812Z,21.38
2017-07-07T00:40:13.753Z,21.33
2017-07-07T00:40:18.210Z,21.36
2017-07-07T00:40:22.430Z,21.37
2017-07-07T00:40:26.501Z,21.36
2017-07-07T00:40:30.961Z,21.28
2017-07-07T00:40:35.037Z,21.34
2017-07-07T00:40:38.857Z,21.31
2017-07-07T00:40:42.680Z,21.4
2017-07-07T00:40:46.624Z,21.36
2017-07-07T00:40:50.446Z,21.36
2017-07-07T00:40:54.660Z,21.36
2017-07-07T00:40:59.129Z,21.36
2017-07-07T00:41:02.826Z,21.36
2017-07-07T00:41:07.158Z,21.34
2017-07-07T00:41:11.482Z,21.3
2017-07-07T00:41:15.568Z,21.28
2017-07-07T00:41:19.944Z,21.3
2017-07-07T00:41:23.884Z,21.38
2017-07-07T00:41:28.328Z,21.28
2017-07-07T00:41:32.673Z,21.28
2017-07-07T00:41:36.753Z,21.26
2017-07-07T00:41:40.962Z,21.3
2017-07-07T00:41:44.791Z,21.3
2017-07-07T00:41:48.871Z,21.27
2017-07-07T00:41:52.943Z,21.33
2017-07-07T00:41:56.905Z,21.26
2017-07-07T00:42:01.243Z,21.26
2017-07-07T00:42:05.053Z,21.28
2017-07-07T00:42:09.379Z,21.3
2017-07-07T00:42:13.591Z,21.27
2017-07-07T00:42:17.671Z,21.33
2017-07-07T00:42:21.740Z,21.27
2017-07-07T00:42:25.954Z,21.33
2017-07-07T00:42:30.276Z,21.26
2017-07-07T00:42:34.234Z,21.28
2017-07-07T00:42:38.315Z,21.3
2017-07-07T00:42:42.282Z,21.3
2017-07-07T00:42:46.240Z,21.3
2017-07-07T00:42:50.461Z,21.33
2017-07-07T00:42:54.661Z,21.21
2017-07-07T00:42:58.864Z,21.28
2017-07-07T00:43:02.864Z,21.33
2017-07-07T00:43:06.961Z,21.24
2017-07-07T00:43:11.154Z,21.3
2017-07-07T00:43:15.348Z,21.3
2017-07-07T00:43:19.421Z,21.24
2017-07-07T00:43:23.633Z,21.26
2017-07-07T00:43:27.726Z,21.3
2017-07-07T00:43:31.786Z,21.22
2017-07-07T00:43:35.996Z,21.3
2017-07-07T00:43:40.457Z,21.28
2017-07-07T00:43:44.787Z,21.21
2017-07-07T00:43:49.008Z,21.24
2017-07-07T00:43:53.086Z,21.24
2017-07-07T00:43:57.042Z,21.27
2017-07-07T00:44:00.998Z,21.28
2017-07-07T00:44:04.981Z,21.21
2017-07-07T00:44:08.804Z,21.27
2017-07-07T00:44:12.756Z,21.22
2017-07-07T00:44:16.979Z,21.27
2017-07-07T00:44:20.937Z,21.24
2017-07-07T00:44:24.762Z,21.18
2017-07-07T00:44:28.974Z,21.24
2017-07-07T00:44:33.178Z,21.22
2017-07-07T00:44:37.238Z,21.18
2017-07-07T00:44:41.319Z,21.19
2017-07-07T00:44:45.457Z,21.24
2017-07-07T00:44:49.662Z,21.16
2017-07-07T00:44:53.884Z,21.15
2017-07-07T00:44:57.831Z,21.16
2017-07-07T00:45:02.047Z,21.21
2017-07-07T00:45:06.372Z,21.18
2017-07-07T00:45:10.322Z,21.18
2017-07-07T00:45:14.410Z,21.16
2017-07-07T00:45:18.611Z,21.11
2017-07-07T00:45:22.696Z,21.12
2017-07-07T00:45:26.643Z,21.11
2017-07-07T00:45:30.861Z,21.11
2017-07-07T00:45:35.068Z,21.13
2017-07-07T00:45:39.401Z,21.16
2017-07-07T00:45:43.762Z,21.13
2017-07-07T00:45:48.093Z,21.18
2017-07-07T00:45:52.301Z,21.13
2017-07-07T00:45:56.260Z,21.05
2017-07-07T00:46:00.268Z,21.11
2017-07-07T00:46:03.969Z,21.12
2017-07-07T00:46:08.282Z,21.12
2017-07-07T00:46:12.223Z,21.16
2017-07-07T00:46:15.922Z,21.08
2017-07-07T00:46:20.119Z,21.13
2017-07-07T00:46:24.066Z,21.12
2017-07-07T00:46:28.274Z,21.03
2017-07-07T00:46:32.357Z,21.08
2017-07-07T00:46:36.587Z,21.18
2017-07-07T00:46:40.679Z,21.13
2017-07-07T00:46:44.889Z,21.13
2017-07-07T00:46:49.089Z,21.13
2017-07-07T00:46:53.421Z,21.12
2017-07-07T00:46:57.244Z,21.13
2017-07-07T00:47:01.573Z,21.08
2017-07-07T00:47:05.647Z,21.12
2017-07-07T00:47:09.854Z,21.09
2017-07-07T00:47:14.181Z,21.16
2017-07-07T00:47:18.255Z,21.15
2017-07-07T00:47:22.210Z,21.06
2017-07-07T00:47:26.028Z,21.13
2017-07-07T00:47:29.975Z,21.11
2017-07-07T00:47:34.116Z,21.12
2017-07-07T00:47:38.320Z,21.09
2017-07-07T00:47:42.148Z,21.09
2017-07-07T00:47:46.481Z,21.09
2017-07-07T00:47:50.550Z,21.15
2017-07-07T00:47:54.516Z,21.05
2017-07-07T00:47:58.727Z,21.03
2017-07-07T00:48:02.696Z,21.11
2017-07-07T00:48:06.651Z,21.08
2017-07-07T00:48:10.732Z,21.09
2017-07-07T00:48:14.674Z,21.09
2017-07-07T00:48:18.875Z,21.06
2017-07-07T00:48:22.945Z,21.09
2017-07-07T00:48:26.905Z,21.05
2017-07-07T00:48:30.976Z,21.08
2017-07-07T00:48:35.299Z,21
2017-07-07T00:48:39.496Z,21.12
2017-07-07T00:48:43.467Z,21.06
2017-07-07T00:48:47.418Z,21.08
2017-07-07T00:48:51.742Z,21.08
2017-07-07T00:48:56.071Z,21.12
2017-07-07T00:49:00.153Z,21.08
2017-07-07T00:49:04.370Z,21.01
2017-07-07T00:49:08.324Z,21.03
2017-07-07T00:49:12.661Z,21.12
2017-07-07T00:49:16.742Z,20.97
2017-07-07T00:49:20.801Z,21.11
2017-07-07T00:49:24.757Z,21.03
2017-07-07T00:49:29.084Z,21.01
2017-07-07T00:49:33.301Z,21.03
2017-07-07T00:49:37.510Z,21
2017-07-07T00:49:41.333Z,20.98
2017-07-07T00:49:45.668Z,21
2017-07-07T00:49:50.130Z,21.01
2017-07-07T00:49:54.208Z,21.01
2017-07-07T00:49:58.542Z,21.03
2017-07-07T00:50:02.661Z,20.97
2017-07-07T00:50:06.752Z,21
2017-07-07T00:50:10.948Z,21.06
2017-07-07T00:50:15.022Z,21.03
2017-07-07T00:50:19.347Z,21.09
2017-07-07T00:50:23.561Z,20.98
2017-07-07T00:50:27.765Z,20.96
2017-07-07T00:50:31.845Z,21
2017-07-07T00:50:35.791Z,21.05
2017-07-07T00:50:39.982Z,21.05
2017-07-07T00:50:43.947Z,21.03
2017-07-07T00:50:47.892Z,21.01
2017-07-07T00:50:51.964Z,21.03
2017-07-07T00:50:56.038Z,21
2017-07-07T00:51:00.115Z,21
2017-07-07T00:51:04.517Z,20.98
2017-07-07T00:51:08.234Z,21
2017-07-07T00:51:12.308Z,20.97
2017-07-07T00:51:16.510Z,20.97
2017-07-07T00:51:20.722Z,21.03
2017-07-07T00:51:24.428Z,20.96
2017-07-07T00:51:28.519Z,21
2017-07-07T00:51:32.707Z,20.97
2017-07-07T00:51:36.929Z,20.93
2017-07-07T00:51:40.904Z,21
2017-07-07T00:51:44.980Z,21
2017-07-07T00:51:49.065Z,21
2017-07-07T00:51:53.002Z,20.96
2017-07-07T00:51:57.086Z,21
2017-07-07T00:52:01.404Z,20.97
2017-07-07T00:52:05.349Z,20.97
2017-07-07T00:52:09.430Z,21.06
2017-07-07T00:52:13.642Z,21
2017-07-07T00:52:17.485Z,20.9
2017-07-07T00:52:21.441Z,21
2017-07-07T00:52:25.380Z,21.08
2017-07-07T00:52:29.458Z,20.96
2017-07-07T00:52:33.734Z,20.93
2017-07-07T00:52:37.936Z,20.93
2017-07-07T00:52:42.021Z,20.96
2017-07-07T00:52:45.868Z,20.98
2017-07-07T00:52:50.335Z,21.01